sensor_id;sensor_type;location;lat;lon;timestamp;pressure;altitude;pressure_sealevel;temperature;humidity
67052;BME280;53957;47.222;18.670;2023-03-13T00:00:06;100440.19;;;4.27;74.95
67052;BME280;53957;47.222;18.670;2023-03-13T00:03:10;100437.91;;;4.19;74.48
67052;BME280;53957;47.222;18.670;2023-03-13T00:06:14;100451.00;;;4.14;75.58
67052;BME280;53957;47.222;18.670;2023-03-13T00:09:17;100450.19;;;4.13;75.18
67052;BME280;53957;47.222;18.670;2023-03-13T00:12:20;100446.53;;;4.14;76.15
67052;BME280;53957;47.222;18.670;2023-03-13T00:15:24;100448.38;;;4.14;76.25
67052;BME280;53957;47.222;18.670;2023-03-13T00:18:27;100447.00;;;4.11;77.43
67052;BME280;53957;47.222;18.670;2023-03-13T00:21:30;100447.88;;;4.17;77.54
67052;BME280;53957;47.222;18.670;2023-03-13T00:24:34;100434.16;;;4.03;76.91
67052;BME280;53957;47.222;18.670;2023-03-13T00:27:37;100433.81;;;4.11;77.09
67052;BME280;53957;47.222;18.670;2023-03-13T00:30:41;100437.00;;;4.13;77.74
67052;BME280;53957;47.222;18.670;2023-03-13T00:33:46;100431.16;;;4.11;78.39
67052;BME280;53957;47.222;18.670;2023-03-13T00:36:49;100433.69;;;4.06;77.94
67052;BME280;53957;47.222;18.670;2023-03-13T00:39:52;100433.91;;;4.16;78.12
67052;BME280;53957;47.222;18.670;2023-03-13T00:42:56;100429.56;;;4.10;80.12
67052;BME280;53957;47.222;18.670;2023-03-13T05:56:47;100408.97;;;2.88;88.34
67052;BME280;53957;47.222;18.670;2023-03-13T05:59:55;100415.72;;;2.96;88.84
67052;BME280;53957;47.222;18.670;2023-03-13T06:02:58;100410.25;;;3.21;87.44
67052;BME280;53957;47.222;18.670;2023-03-13T06:06:21;100412.09;;;3.45;85.83
67052;BME280;53957;47.222;18.670;2023-03-13T06:09:24;100413.00;;;3.27;86.35
67052;BME280;53957;47.222;18.670;2023-03-13T06:12:30;100413.72;;;3.46;86.29
67052;BME280;53957;47.222;18.670;2023-03-13T06:15:33;100420.22;;;3.43;84.93
67052;BME280;53957;47.222;18.670;2023-03-13T06:18:37;100414.56;;;4.28;82.16
67052;BME280;53957;47.222;18.670;2023-03-13T06:21:40;100415.53;;;5.36;74.58
67052;BME280;53957;47.222;18.670;2023-03-13T06:25:04;100417.88;;;6.10;71.60
67052;BME280;53957;47.222;18.670;2023-03-13T06:28:07;100412.28;;;6.34;68.25
67052;BME280;53957;47.222;18.670;2023-03-13T06:31:10;100423.69;;;6.89;65.60
67052;BME280;53957;47.222;18.670;2023-03-13T06:34:14;100420.72;;;6.86;64.19
67052;BME280;53957;47.222;18.670;2023-03-13T06:37:17;100426.41;;;6.67;64.94
67052;BME280;53957;47.222;18.670;2023-03-13T06:40:19;100432.69;;;6.88;64.43
67052;BME280;53957;47.222;18.670;2023-03-13T06:43:23;100423.87;;;7.15;64.54
67052;BME280;53957;47.222;18.670;2023-03-13T06:46:26;100421.09;;;7.00;63.73
67052;BME280;53957;47.222;18.670;2023-03-13T06:49:34;100421.19;;;6.77;64.36
67052;BME280;53957;47.222;18.670;2023-03-13T06:52:57;100425.91;;;7.40;62.25
67052;BME280;53957;47.222;18.670;2023-03-13T06:56:02;100422.16;;;7.36;62.04
67052;BME280;53957;47.222;18.670;2023-03-13T06:59:25;100425.38;;;7.92;61.15
67052;BME280;53957;47.222;18.670;2023-03-13T07:02:36;100422.28;;;7.57;60.24
67052;BME280;53957;47.222;18.670;2023-03-13T07:05:39;100410.44;;;7.80;59.06
67052;BME280;53957;47.222;18.670;2023-03-13T07:09:06;100413.16;;;7.90;55.62
67052;BME280;53957;47.222;18.670;2023-03-13T07:12:29;100414.56;;;8.14;56.28
67052;BME280;53957;47.222;18.670;2023-03-13T07:15:35;100415.38;;;8.25;55.30
67052;BME280;53957;47.222;18.670;2023-03-13T07:18:41;100415.78;;;8.80;52.49
67052;BME280;53957;47.222;18.670;2023-03-13T07:21:48;100421.62;;;9.13;53.78
67052;BME280;53957;47.222;18.670;2023-03-13T07:25:11;100414.19;;;9.15;51.12
67052;BME280;53957;47.222;18.670;2023-03-13T07:28:34;100414.44;;;8.98;53.02
67052;BME280;53957;47.222;18.670;2023-03-13T07:31:59;100412.03;;;8.91;52.26
67052;BME280;53957;47.222;18.670;2023-03-13T07:35:22;100415.88;;;9.87;50.14
67052;BME280;53957;47.222;18.670;2023-03-13T07:38:25;100410.41;;;9.37;50.45
67052;BME280;53957;47.222;18.670;2023-03-13T07:41:28;100419.59;;;9.75;49.85
67052;BME280;53957;47.222;18.670;2023-03-13T07:44:52;100423.69;;;9.52;49.94
67052;BME280;53957;47.222;18.670;2023-03-13T07:48:15;100402.66;;;10.16;49.39
67052;BME280;53957;47.222;18.670;2023-03-13T07:51:22;100407.09;;;9.81;50.03
67052;BME280;53957;47.222;18.670;2023-03-13T16:24:56;99787.63;;;13.08;57.38
67052;BME280;53957;47.222;18.670;2023-03-13T16:27:59;99776.72;;;12.95;58.39
67052;BME280;53957;47.222;18.670;2023-03-13T16:31:03;99771.38;;;12.95;58.51
67052;BME280;53957;47.222;18.670;2023-03-13T16:34:07;99767.34;;;12.84;59.01
67052;BME280;53957;47.222;18.670;2023-03-13T16:37:17;99784.47;;;12.74;59.51
67052;BME280;53957;47.222;18.670;2023-03-13T16:40:21;99786.94;;;12.62;60.23
67052;BME280;53957;47.222;18.670;2023-03-13T16:43:25;99780.56;;;12.49;60.91
67052;BME280;53957;47.222;18.670;2023-03-13T16:46:35;99769.81;;;12.40;61.78
67052;BME280;53957;47.222;18.670;2023-03-13T16:49:39;99771.63;;;12.31;62.08
67052;BME280;53957;47.222;18.670;2023-03-13T16:53:02;99773.47;;;12.21;62.26
67052;BME280;53957;47.222;18.670;2023-03-13T16:56:23;99774.19;;;12.13;62.46
67052;BME280;53957;47.222;18.670;2023-03-13T16:59:27;99785.91;;;12.03;62.80
67052;BME280;53957;47.222;18.670;2023-03-13T17:02:52;99785.63;;;11.91;63.38
67052;BME280;53957;47.222;18.670;2023-03-13T17:05:55;99787.47;;;11.82;63.80
67052;BME280;53957;47.222;18.670;2023-03-13T17:08:59;99790.41;;;11.80;64.15
67052;BME280;53957;47.222;18.670;2023-03-13T17:12:03;99794.41;;;11.69;64.47
67052;BME280;53957;47.222;18.670;2023-03-13T17:15:07;99796.59;;;11.67;64.69
67052;BME280;53957;47.222;18.670;2023-03-13T17:18:11;99794.34;;;11.46;65.70
67052;BME280;53957;47.222;18.670;2023-03-13T17:21:18;99784.16;;;11.34;66.12
67052;BME280;53957;47.222;18.670;2023-03-13T17:24:21;99793.56;;;11.32;66.03
67052;BME280;53957;47.222;18.670;2023-03-13T17:27:24;99789.09;;;11.27;65.81
67052;BME280;53957;47.222;18.670;2023-03-13T17:30:30;99789.50;;;11.20;65.94
67052;BME280;53957;47.222;18.670;2023-03-13T17:33:33;99790.00;;;11.08;66.45
67052;BME280;53957;47.222;18.670;2023-03-13T17:36:36;99780.91;;;10.95;67.44
67052;BME280;53957;47.222;18.670;2023-03-13T17:39:40;99781.19;;;10.80;68.33
67052;BME280;53957;47.222;18.670;2023-03-13T17:42:43;99781.66;;;10.68;68.85
67052;BME280;53957;47.222;18.670;2023-03-13T17:45:46;99778.63;;;10.42;70.35
67052;BME280;53957;47.222;18.670;2023-03-13T17:48:51;99778.94;;;10.21;72.03
67052;BME280;53957;47.222;18.670;2023-03-13T17:52:04;99776.94;;;10.13;72.57
67052;BME280;53957;47.222;18.670;2023-03-13T17:55:08;99774.66;;;10.06;72.99
67052;BME280;53957;47.222;18.670;2023-03-13T17:58:31;99765.06;;;10.05;72.98
67052;BME280;53957;47.222;18.670;2023-03-13T18:01:34;99772.56;;;9.84;74.00
67052;BME280;53957;47.222;18.670;2023-03-13T18:04:39;99771.84;;;9.78;74.69
67052;BME280;53957;47.222;18.670;2023-03-13T18:07:42;99764.34;;;9.61;75.89
67052;BME280;53957;47.222;18.670;2023-03-13T18:10:47;99765.84;;;9.48;76.92
67052;BME280;53957;47.222;18.670;2023-03-13T18:13:51;99758.84;;;9.33;78.07
67052;BME280;53957;47.222;18.670;2023-03-13T18:16:55;99764.56;;;9.22;78.98
67052;BME280;53957;47.222;18.670;2023-03-13T18:19:59;99768.66;;;9.14;79.43
67052;BME280;53957;47.222;18.670;2023-03-13T18:23:02;99766.22;;;9.17;79.41
67052;BME280;53957;47.222;18.670;2023-03-13T18:29:23;99763.94;;;9.06;80.19
67052;BME280;53957;47.222;18.670;2023-03-13T18:32:29;99761.00;;;9.07;80.24
67052;BME280;53957;47.222;18.670;2023-03-13T18:35:32;99760.22;;;9.07;80.10
67052;BME280;53957;47.222;18.670;2023-03-13T18:38:55;99753.88;;;9.02;80.45
67052;BME280;53957;47.222;18.670;2023-03-13T18:41:59;99743.88;;;8.94;81.06
67052;BME280;53957;47.222;18.670;2023-03-13T18:45:04;99741.75;;;8.91;81.22
67052;BME280;53957;47.222;18.670;2023-03-13T18:48:27;99744.81;;;8.79;82.06
67052;BME280;53957;47.222;18.670;2023-03-13T18:51:30;99745.72;;;8.69;82.78
67052;BME280;53957;47.222;18.670;2023-03-13T18:54:41;99741.41;;;8.74;82.63
67052;BME280;53957;47.222;18.670;2023-03-13T18:57:47;99730.78;;;8.74;82.87
67052;BME280;53957;47.222;18.670;2023-03-13T19:00:51;99731.78;;;8.78;82.83
67052;BME280;53957;47.222;18.670;2023-03-13T19:03:55;99718.94;;;8.85;82.63
67052;BME280;53957;47.222;18.670;2023-03-13T19:06:58;99715.22;;;8.86;82.46
67052;BME280;53957;47.222;18.670;2023-03-13T19:10:01;99716.47;;;8.94;82.05
67052;BME280;53957;47.222;18.670;2023-03-13T19:13:05;99701.59;;;8.93;82.21
67052;BME280;53957;47.222;18.670;2023-03-13T19:16:16;99702.47;;;9.07;81.55
67052;BME280;53957;47.222;18.670;2023-03-13T19:19:40;99702.41;;;9.12;81.19
67052;BME280;53957;47.222;18.670;2023-03-13T19:22:43;99689.28;;;9.21;80.92
67052;BME280;53957;47.222;18.670;2023-03-13T19:25:55;99683.44;;;9.19;80.76
67052;BME280;53957;47.222;18.670;2023-03-13T19:28:58;99670.06;;;9.24;80.30
67052;BME280;53957;47.222;18.670;2023-03-13T19:32:02;99674.63;;;9.24;80.19
67052;BME280;53957;47.222;18.670;2023-03-13T19:35:10;99666.56;;;9.29;79.49
67052;BME280;53957;47.222;18.670;2023-03-13T19:38:18;99665.19;;;9.31;79.01
67052;BME280;53957;47.222;18.670;2023-03-13T19:41:21;99660.00;;;9.40;77.87
67052;BME280;53957;47.222;18.670;2023-03-13T19:44:24;99664.56;;;9.40;77.45
67052;BME280;53957;47.222;18.670;2023-03-13T19:47:27;99660.31;;;9.39;77.14
67052;BME280;53957;47.222;18.670;2023-03-13T19:50:50;99657.13;;;9.37;77.02
67052;BME280;53957;47.222;18.670;2023-03-13T19:54:13;99662.44;;;9.37;76.74
67052;BME280;53957;47.222;18.670;2023-03-13T19:57:18;99654.03;;;9.29;77.33
67052;BME280;53957;47.222;18.670;2023-03-13T20:00:24;99647.78;;;9.20;77.73
67052;BME280;53957;47.222;18.670;2023-03-13T20:03:27;99657.19;;;9.12;78.20
67052;BME280;53957;47.222;18.670;2023-03-13T20:06:33;99653.22;;;9.10;78.21
67052;BME280;53957;47.222;18.670;2023-03-13T20:09:37;99649.00;;;9.09;77.84
67052;BME280;53957;47.222;18.670;2023-03-13T20:12:40;99652.44;;;9.09;77.60
67052;BME280;53957;47.222;18.670;2023-03-13T20:15:43;99651.78;;;8.98;78.07
67052;BME280;53957;47.222;18.670;2023-03-13T20:18:50;99645.22;;;8.91;78.29
67052;BME280;53957;47.222;18.670;2023-03-13T20:21:53;99641.28;;;8.88;78.17
67052;BME280;53957;47.222;18.670;2023-03-13T20:24:56;99648.44;;;8.88;77.35
67052;BME280;53957;47.222;18.670;2023-03-13T20:27:59;99637.16;;;8.77;77.17
67052;BME280;53957;47.222;18.670;2023-03-13T20:31:03;99620.47;;;8.71;76.57
67052;BME280;53957;47.222;18.670;2023-03-13T20:34:06;99616.56;;;8.63;76.58
67052;BME280;53957;47.222;18.670;2023-03-13T20:37:10;99606.00;;;8.58;76.25
67052;BME280;53957;47.222;18.670;2023-03-13T20:40:14;99592.75;;;8.53;75.92
67052;BME280;53957;47.222;18.670;2023-03-13T20:43:24;99591.97;;;8.52;75.28
67052;BME280;53957;47.222;18.670;2023-03-13T20:46:27;99588.03;;;8.50;74.87
67052;BME280;53957;47.222;18.670;2023-03-13T20:49:34;99583.47;;;8.50;74.07
67052;BME280;53957;47.222;18.670;2023-03-13T20:52:37;99573.97;;;8.44;73.99
67052;BME280;53957;47.222;18.670;2023-03-13T20:55:41;99561.53;;;8.40;73.52
67052;BME280;53957;47.222;18.670;2023-03-13T20:58:44;99558.28;;;8.48;72.38
67052;BME280;53957;47.222;18.670;2023-03-13T21:01:47;99549.59;;;8.37;72.87
67052;BME280;53957;47.222;18.670;2023-03-13T21:04:50;99542.97;;;8.34;72.41
67052;BME280;53957;47.222;18.670;2023-03-13T21:07:53;99537.41;;;8.36;71.64
67052;BME280;53957;47.222;18.670;2023-03-13T21:10:56;99538.75;;;8.33;71.47
67052;BME280;53957;47.222;18.670;2023-03-13T21:13:59;99537.44;;;8.31;71.19
67052;BME280;53957;47.222;18.670;2023-03-13T21:17:03;99526.09;;;8.25;70.89
67052;BME280;53957;47.222;18.670;2023-03-13T21:20:08;99512.38;;;8.18;70.74
67052;BME280;53957;47.222;18.670;2023-03-13T21:23:16;99514.56;;;8.11;70.97
67052;BME280;53957;47.222;18.670;2023-03-13T21:26:22;99501.12;;;8.02;71.38
67052;BME280;53957;47.222;18.670;2023-03-13T21:29:44;99497.22;;;7.94;71.51
67052;BME280;53957;47.222;18.670;2023-03-13T21:32:49;99494.06;;;7.92;71.73
67052;BME280;53957;47.222;18.670;2023-03-13T21:35:53;99491.00;;;7.80;72.23
67052;BME280;53957;47.222;18.670;2023-03-13T21:38:56;99479.12;;;7.72;72.63
67052;BME280;53957;47.222;18.670;2023-03-13T21:41:59;99484.53;;;7.62;73.25
67052;BME280;53957;47.222;18.670;2023-03-13T21:45:04;99477.47;;;7.52;73.77
67052;BME280;53957;47.222;18.670;2023-03-13T21:48:07;99479.56;;;7.55;73.94
67052;BME280;53957;47.222;18.670;2023-03-13T21:51:11;99483.88;;;7.51;74.15
67052;BME280;53957;47.222;18.670;2023-03-13T21:54:18;99471.44;;;7.46;74.28
67052;BME280;53957;47.222;18.670;2023-03-13T21:57:21;99477.84;;;7.40;74.93
67052;BME280;53957;47.222;18.670;2023-03-13T22:00:24;99472.84;;;7.33;75.67
67052;BME280;53957;47.222;18.670;2023-03-13T22:03:28;99477.13;;;7.29;76.22
